Aviation Digital Data Service (ADDS)

Output produced by METARs form (1555 UTC 04 August 2021)
found at http://www.aviationweather.gov/metar/data/
 
Forecast for: KDFW (DALLAS/FT WORTH , TX, US)
Text: KDFW 041501Z 0415/0518 10005KT P6SM FEW025 BKN100
Forecast period: 1500 to 1800 UTC 04 August 2021
Forecast type: FROM: standard forecast or significant change
Winds: from the E (100 degrees) at 6 MPH (5 knots; 2.6 m/s)
Visibility: 6 or more miles (10+ km)
Ceiling: 10000 feet AGL
Clouds: few clouds at 2500 feet AGL
broken clouds at 10000 feet AGL
Weather: no significant weather forecast for this period
Text: FM041800 11006KT P6SM SCT040 SCT100
Forecast period: 1800 UTC 04 August 2021 to 1800 UTC 05 August 2021
Forecast type: FROM: standard forecast or significant change
Winds: from the ESE (110 degrees) at 7 MPH (6 knots; 3.1 m/s)
Visibility: 6 or more miles (10+ km)
Ceiling: at least 12,000 feet AGL
Clouds: scattered clouds at 4000 feet AGL
scattered clouds at 10000 feet AGL
Weather: no significant weather forecast for this period